createdAt,value
2022-10-14T00:02:47.152Z,9.65
2022-10-14T00:05:51.689Z,10.55
2022-10-14T00:08:55.800Z,8.35
2022-10-14T00:11:59.621Z,9.33
2022-10-14T00:15:04.764Z,11.70
2022-10-14T00:18:09.455Z,8.93
2022-10-14T00:21:14.397Z,10.25
2022-10-14T00:24:18.859Z,9.70
2022-10-14T00:27:22.436Z,10.90
2022-10-14T00:30:25.684Z,10.50
2022-10-14T00:33:30.199Z,10.57
2022-10-14T00:36:39.008Z,9.50
2022-10-14T00:39:42.351Z,10.25
2022-10-14T00:42:45.553Z,11.03
2022-10-14T00:45:49.107Z,8.18
2022-10-14T00:48:53.914Z,9.57
2022-10-14T00:52:03.182Z,10.30
2022-10-14T00:55:15.247Z,10.35
2022-10-14T00:58:18.802Z,10.20
2022-10-14T01:01:22.398Z,9.52
2022-10-14T01:04:26.675Z,9.02
2022-10-14T01:08:00.397Z,9.55
2022-10-14T01:11:14.334Z,11.43
2022-10-14T01:14:27.499Z,10.67
2022-10-14T01:17:48.240Z,9.60
2022-10-14T01:21:07.872Z,11.07
2022-10-14T01:24:39.501Z,13.45
2022-10-14T01:28:25.810Z,10.45
2022-10-14T01:31:36.210Z,10.97
2022-10-14T01:34:46.985Z,10.50
2022-10-14T01:37:59.798Z,11.77
2022-10-14T01:41:12.806Z,10.68
2022-10-14T01:44:20.947Z,12.00
2022-10-14T01:47:31.631Z,8.83
2022-10-14T01:50:40.239Z,10.70
2022-10-14T01:53:51.398Z,8.73
2022-10-14T01:56:59.169Z,10.93
2022-10-14T02:00:05.189Z,10.02
2022-10-14T02:03:18.995Z,9.83
2022-10-14T02:06:31.414Z,8.75
2022-10-14T02:09:48.240Z,10.52
2022-10-14T02:13:09.580Z,9.80
2022-10-14T02:16:24.760Z,8.68
2022-10-14T02:19:40.581Z,9.47
2022-10-14T02:22:56.310Z,11.38
2022-10-14T02:26:02.441Z,10.25
2022-10-14T02:29:07.694Z,9.07
2022-10-14T02:32:15.979Z,10.32
2022-10-14T02:35:25.710Z,11.50
2022-10-14T02:38:33.208Z,10.27
2022-10-14T02:41:39.669Z,9.75
2022-10-14T02:44:54.982Z,10.75
2022-10-14T02:47:58.596Z,10.32
2022-10-14T02:51:03.013Z,10.73
2022-10-14T02:54:06.838Z,9.63
2022-10-14T02:57:10.599Z,10.82
2022-10-14T03:00:16.685Z,10.75
2022-10-14T03:03:20.249Z,10.25
2022-10-14T03:06:26.604Z,12.03
2022-10-14T03:09:33.707Z,11.23
2022-10-14T03:12:37.316Z,11.60
2022-10-14T03:15:42.157Z,10.02
2022-10-14T03:18:47.496Z,10.88
2022-10-14T03:21:59.637Z,12.87
2022-10-14T03:25:04.322Z,8.88
2022-10-14T03:28:17.140Z,8.23
2022-10-14T03:31:31.925Z,10.45
2022-10-14T03:34:47.138Z,11.00
2022-10-14T03:37:59.468Z,9.80
2022-10-14T03:41:06.812Z,10.05
2022-10-14T03:44:11.973Z,11.82
2022-10-14T03:47:21.418Z,11.13
2022-10-14T03:50:25.518Z,10.68
2022-10-14T03:53:32.299Z,11.37
2022-10-14T03:56:36.333Z,13.48
2022-10-14T03:59:41.384Z,10.85
2022-10-14T04:02:45.223Z,10.40
2022-10-14T04:06:03.380Z,10.65
2022-10-14T04:09:08.810Z,13.03
2022-10-14T04:12:15.496Z,10.35
2022-10-14T04:15:27.843Z,11.45
2022-10-14T04:18:51.313Z,10.52
2022-10-14T04:21:57.978Z,10.80
2022-10-14T04:25:05.242Z,9.97
2022-10-14T04:28:08.890Z,12.00
2022-10-14T04:31:24.296Z,11.82
2022-10-14T04:34:33.710Z,10.05
2022-10-14T04:37:36.980Z,11.15
2022-10-14T04:40:49.364Z,10.00
2022-10-14T04:43:53.239Z,10.98
2022-10-14T04:47:06.539Z,11.45
2022-10-14T04:50:10.838Z,10.07
2022-10-14T04:53:34.217Z,9.82
2022-10-14T04:56:47.224Z,9.50
2022-10-14T04:59:51.526Z,11.30
2022-10-14T05:03:26.746Z,9.80
2022-10-14T05:06:30.503Z,10.77
2022-10-14T05:09:34.063Z,11.90
2022-10-14T05:12:40.825Z,9.57
2022-10-14T05:15:44.037Z,10.30
2022-10-14T05:18:49.067Z,10.18
2022-10-14T05:21:52.436Z,9.82
2022-10-14T05:25:09.264Z,11.93
2022-10-14T05:28:13.854Z,10.50
2022-10-14T05:31:20.028Z,10.65
2022-10-14T05:34:32.490Z,11.80
2022-10-14T05:37:36.070Z,14.48
2022-10-14T05:40:40.200Z,11.05
2022-10-14T05:43:45.039Z,8.73
2022-10-14T05:46:48.147Z,10.90
2022-10-14T05:49:52.302Z,9.82
2022-10-14T05:52:55.565Z,10.38
2022-10-14T05:56:05.612Z,8.82
2022-10-14T05:59:11.897Z,7.77
2022-10-14T06:02:15.337Z,9.45
2022-10-14T06:05:18.439Z,11.38
2022-10-14T06:08:22.523Z,11.02
2022-10-14T06:11:25.675Z,10.88
2022-10-14T06:14:30.358Z,10.63
2022-10-14T06:17:34.564Z,11.65
2022-10-14T06:20:38.390Z,10.77
2022-10-14T06:23:41.508Z,12.60
2022-10-14T06:26:44.771Z,9.57
2022-10-14T06:29:49.269Z,10.93
2022-10-14T06:32:54.058Z,12.82
2022-10-14T06:35:57.632Z,11.50
2022-10-14T06:39:01.232Z,11.95
2022-10-14T06:42:08.348Z,8.63
2022-10-14T06:45:17.513Z,10.37
2022-10-14T06:48:20.563Z,12.80
2022-10-14T06:51:24.364Z,13.32
2022-10-14T06:54:27.346Z,17.08
2022-10-14T06:57:30.647Z,13.00
2022-10-14T07:00:35.582Z,11.43
2022-10-14T07:03:40.170Z,9.85
2022-10-14T07:06:43.206Z,18.33
2022-10-14T07:09:46.492Z,16.10
2022-10-14T07:12:49.647Z,15.82
2022-10-14T07:15:54.225Z,16.97
2022-10-14T07:18:57.352Z,18.85
2022-10-14T07:22:01.242Z,24.65
2022-10-14T07:25:05.985Z,25.67
2022-10-14T07:28:09.540Z,25.92
2022-10-14T07:31:14.582Z,19.67
2022-10-14T07:34:17.979Z,22.50
2022-10-14T07:37:21.231Z,20.02
2022-10-14T07:40:24.929Z,16.80
2022-10-14T07:43:28.923Z,14.90
2022-10-14T07:46:36.550Z,14.97
2022-10-14T07:49:39.654Z,15.15
2022-10-14T07:52:43.050Z,14.30
2022-10-14T07:55:52.027Z,17.10
2022-10-14T07:58:55.932Z,16.10
2022-10-14T08:02:00.445Z,14.43
2022-10-14T08:05:25.432Z,14.55
2022-10-14T08:08:29.777Z,13.32
2022-10-14T08:11:33.526Z,11.00
2022-10-14T08:14:36.647Z,14.90
2022-10-14T08:17:41.170Z,14.90
2022-10-14T08:20:44.146Z,15.48
2022-10-14T08:23:48.310Z,12.85
2022-10-14T08:26:54.409Z,16.13
2022-10-14T08:29:58.098Z,15.90
2022-10-14T08:33:02.559Z,11.93
2022-10-14T08:36:06.564Z,15.10
2022-10-14T08:42:38.168Z,11.77
2022-10-14T08:45:50.990Z,12.15
2022-10-14T08:49:08.048Z,11.33
2022-10-14T08:52:18.585Z,12.23
2022-10-14T08:55:34.315Z,12.88
2022-10-14T08:58:42.423Z,13.50
2022-10-14T09:01:54.299Z,11.48
2022-10-14T09:05:02.160Z,11.43
2022-10-14T09:08:15.867Z,12.02
2022-10-14T09:11:22.645Z,11.90
2022-10-14T09:14:32.918Z,14.55
2022-10-14T09:17:44.086Z,21.80
2022-10-14T09:20:49.684Z,12.10
2022-10-14T09:24:03.968Z,12.18
2022-10-14T09:27:15.330Z,16.88
2022-10-14T09:30:21.527Z,16.60
2022-10-14T09:33:29.414Z,16.70
2022-10-14T09:36:33.794Z,12.27
2022-10-14T09:39:40.797Z,14.75
2022-10-14T09:42:55.333Z,18.55
2022-10-14T09:46:03.540Z,14.68
2022-10-14T09:49:14.592Z,12.85
2022-10-14T09:52:26.246Z,12.57
2022-10-14T09:55:30.651Z,11.25
2022-10-14T09:58:43.320Z,14.98
2022-10-14T10:01:52.804Z,13.48
2022-10-14T10:04:57.479Z,12.43
2022-10-14T10:08:16.433Z,13.50
2022-10-14T10:11:33.535Z,11.10
2022-10-14T10:14:36.873Z,11.45
2022-10-14T10:17:41.481Z,10.60
2022-10-14T10:21:02.757Z,11.90
2022-10-14T10:24:24.806Z,10.50
2022-10-14T10:27:35.608Z,8.65
2022-10-14T10:30:58.772Z,10.75
2022-10-14T10:34:28.116Z,11.88
2022-10-14T10:37:38.689Z,11.10
2022-10-14T10:41:15.177Z,11.47
2022-10-14T10:44:53.794Z,10.10
2022-10-14T10:48:07.755Z,10.15
2022-10-14T10:51:19.168Z,13.45
2022-10-14T10:54:38.124Z,10.60
2022-10-14T10:58:03.731Z,11.37
2022-10-14T11:01:31.602Z,10.63
2022-10-14T11:04:46.480Z,10.35
2022-10-14T11:08:17.206Z,9.75
2022-10-14T11:11:46.015Z,10.07
2022-10-14T11:15:38.481Z,14.33
2022-10-14T11:18:51.134Z,13.15
2022-10-14T11:22:06.937Z,12.02
2022-10-14T11:25:26.446Z,10.75
2022-10-14T11:28:44.335Z,10.35
2022-10-14T11:32:04.709Z,10.60
2022-10-14T11:35:27.750Z,9.35
2022-10-14T11:38:55.108Z,9.80
2022-10-14T11:42:17.178Z,9.20
2022-10-14T11:45:46.670Z,9.15
2022-10-14T11:48:57.420Z,9.70
2022-10-14T11:52:07.767Z,10.80
2022-10-14T11:55:19.997Z,12.25
2022-10-14T11:58:28.479Z,14.98
2022-10-14T12:01:38.176Z,9.63
2022-10-14T12:04:59.305Z,12.30
2022-10-14T12:08:17.465Z,21.10
2022-10-14T12:11:30.882Z,9.27
2022-10-14T12:14:37.621Z,10.00
2022-10-14T12:17:53.411Z,8.50
2022-10-14T12:21:19.316Z,9.30
2022-10-14T12:24:32.815Z,9.77
2022-10-14T12:27:37.849Z,10.90
2022-10-14T12:30:42.906Z,9.35
2022-10-14T12:34:32.206Z,10.18
2022-10-14T12:37:54.308Z,9.47
2022-10-14T12:41:40.722Z,7.63
2022-10-14T12:44:49.365Z,9.23
2022-10-14T12:48:06.745Z,9.25
2022-10-14T12:51:16.810Z,10.20
2022-10-14T12:54:21.274Z,10.50
2022-10-14T12:57:30.586Z,8.55
2022-10-14T13:00:39.683Z,8.98
2022-10-14T13:03:48.539Z,9.07
2022-10-14T13:07:47.454Z,7.97
2022-10-14T13:11:12.002Z,8.20
2022-10-14T13:14:25.874Z,7.43
2022-10-14T13:17:43.520Z,8.63
2022-10-14T13:20:53.077Z,8.27
2022-10-14T13:23:59.462Z,10.05
2022-10-14T13:27:18.799Z,8.60
2022-10-14T13:30:34.781Z,9.82
2022-10-14T13:33:47.975Z,9.43
2022-10-14T13:37:08.188Z,9.88
2022-10-14T13:40:26.298Z,9.15
2022-10-14T13:43:42.203Z,7.53
2022-10-14T13:46:50.135Z,6.65
2022-10-14T13:49:53.500Z,7.95
2022-10-14T13:53:00.839Z,8.15
2022-10-14T13:56:04.111Z,7.53
2022-10-14T13:59:43.260Z,9.67
2022-10-14T14:02:51.485Z,11.48
2022-10-14T14:06:02.881Z,9.82
2022-10-14T14:09:08.079Z,7.63
2022-10-14T14:12:14.659Z,7.30
2022-10-14T14:15:26.238Z,7.77
2022-10-14T14:18:55.653Z,8.52
2022-10-14T14:22:19.271Z,7.75
2022-10-14T14:25:38.179Z,8.02
2022-10-14T14:28:49.792Z,8.45
2022-10-14T14:32:06.801Z,7.80
2022-10-14T14:35:16.088Z,8.23
2022-10-14T14:38:30.574Z,7.60
2022-10-14T14:41:34.202Z,7.43
2022-10-14T14:44:37.500Z,7.65
2022-10-14T14:47:43.643Z,7.40
2022-10-14T14:50:48.812Z,9.63
2022-10-14T14:53:56.104Z,7.90
2022-10-14T14:57:10.847Z,7.82
2022-10-14T15:00:45.300Z,7.35
2022-10-14T15:04:12.395Z,7.57
2022-10-14T15:07:26.874Z,8.75
2022-10-14T15:10:32.714Z,7.93
2022-10-14T15:13:50.816Z,11.10
2022-10-14T15:16:54.650Z,9.45
2022-10-14T15:20:02.264Z,6.87
2022-10-14T15:23:39.904Z,7.43
2022-10-14T15:26:43.291Z,7.05
2022-10-14T15:29:46.403Z,8.32
2022-10-14T15:32:52.592Z,7.10
2022-10-14T15:36:01.629Z,10.17
2022-10-14T15:39:04.945Z,8.20
2022-10-14T15:42:13.437Z,9.65
2022-10-14T15:45:18.798Z,9.57
2022-10-14T15:48:22.114Z,7.75
2022-10-14T15:51:31.916Z,6.97
2022-10-14T15:54:35.757Z,7.68
2022-10-14T15:57:40.060Z,7.43
2022-10-14T16:00:43.403Z,7.53
2022-10-14T16:03:48.000Z,11.43
2022-10-14T16:06:57.703Z,7.80
2022-10-14T16:10:01.170Z,8.25
2022-10-14T16:13:04.212Z,7.28
2022-10-14T16:16:14.668Z,8.98
2022-10-14T16:19:17.682Z,6.85
2022-10-14T16:22:22.668Z,9.10
2022-10-14T16:25:35.119Z,9.55
2022-10-14T16:28:39.594Z,15.68
2022-10-14T16:31:43.125Z,9.93
2022-10-14T16:34:46.288Z,8.65
2022-10-14T16:37:50.669Z,8.93
2022-10-14T16:40:58.451Z,7.82
2022-10-14T16:44:01.486Z,8.13
2022-10-14T16:47:20.916Z,8.45
2022-10-14T16:50:24.382Z,7.32
2022-10-14T16:53:43.657Z,10.27
2022-10-14T16:56:56.760Z,7.13
2022-10-14T17:00:01.571Z,8.45
2022-10-14T17:03:05.118Z,9.93
2022-10-14T17:06:09.255Z,9.43
2022-10-14T17:09:14.179Z,11.17
2022-10-14T17:12:17.874Z,7.57
2022-10-14T17:15:21.324Z,7.68
2022-10-14T17:18:25.860Z,8.30
2022-10-14T17:21:29.439Z,9.20
2022-10-14T17:24:34.288Z,10.17
2022-10-14T17:27:37.481Z,7.35
2022-10-14T17:30:40.782Z,7.55
2022-10-14T17:33:44.300Z,6.80
2022-10-14T17:36:47.435Z,7.80
2022-10-14T17:39:52.027Z,8.00
2022-10-14T17:42:55.316Z,8.60
2022-10-14T17:46:03.131Z,12.38
2022-10-14T17:49:10.128Z,7.13
2022-10-14T17:52:13.309Z,9.00
2022-10-14T17:58:27.114Z,7.10
2022-10-14T18:01:37.702Z,8.15
2022-10-14T18:04:48.229Z,9.05
2022-10-14T18:07:51.983Z,9.77
2022-10-14T18:10:57.186Z,9.57
2022-10-14T18:14:04.900Z,7.90
2022-10-14T18:17:08.125Z,9.77
2022-10-14T18:20:11.435Z,9.23
2022-10-14T18:23:14.510Z,8.38
2022-10-14T18:26:22.471Z,9.50
2022-10-14T18:29:26.144Z,11.30
2022-10-14T18:32:29.589Z,8.52
2022-10-14T18:35:32.923Z,10.32
2022-10-14T18:38:37.347Z,8.85
2022-10-14T18:41:43.933Z,9.23
2022-10-14T18:44:47.375Z,9.38
2022-10-14T18:47:50.857Z,8.38
2022-10-14T18:50:58.779Z,9.57
2022-10-14T18:54:06.828Z,10.93
2022-10-14T18:57:15.035Z,9.87
2022-10-14T19:00:18.460Z,9.63
2022-10-14T19:03:21.953Z,8.70
2022-10-14T19:06:25.424Z,12.10
2022-10-14T19:09:30.144Z,12.13
2022-10-14T19:12:44.383Z,8.87
2022-10-14T19:15:53.843Z,9.93
2022-10-14T19:18:59.931Z,9.93
2022-10-14T19:22:03.250Z,10.48
2022-10-14T19:25:07.532Z,9.98
2022-10-14T19:28:12.130Z,11.37
2022-10-14T19:31:20.725Z,11.18
2022-10-14T19:34:27.352Z,12.15
2022-10-14T19:37:30.694Z,19.02
2022-10-14T19:40:34.407Z,13.75
2022-10-14T19:43:39.529Z,11.03
2022-10-14T19:46:44.174Z,10.70
2022-10-14T19:49:47.466Z,10.85
2022-10-14T19:52:53.733Z,10.55
2022-10-14T19:56:04.728Z,9.15
2022-10-14T19:59:10.961Z,12.00
2022-10-14T20:02:14.132Z,16.75
2022-10-14T20:05:17.852Z,13.13
2022-10-14T20:08:21.260Z,14.05
2022-10-14T20:11:25.169Z,12.85
2022-10-14T20:14:30.380Z,11.30
2022-10-14T20:17:34.369Z,11.93
2022-10-14T20:20:40.725Z,11.95
2022-10-14T20:23:45.376Z,12.05
2022-10-14T20:26:48.440Z,12.73
2022-10-14T20:29:53.412Z,12.93
2022-10-14T20:32:56.707Z,10.57
2022-10-14T20:36:01.057Z,12.13
2022-10-14T20:39:04.348Z,11.40
2022-10-14T20:42:08.633Z,10.48
2022-10-14T20:45:13.087Z,11.27
2022-10-14T20:48:16.446Z,12.32
2022-10-14T20:51:20.398Z,10.77
2022-10-14T20:54:24.067Z,9.88
2022-10-14T20:57:27.279Z,11.35
2022-10-14T21:00:32.118Z,10.87
2022-10-14T21:03:35.154Z,11.75
2022-10-14T21:06:39.666Z,10.52
2022-10-14T21:09:42.978Z,10.13
2022-10-14T21:12:48.695Z,12.32
2022-10-14T21:15:53.439Z,11.70
2022-10-14T21:18:59.474Z,11.07
2022-10-14T21:22:03.887Z,11.68
2022-10-14T21:25:07.778Z,11.68
2022-10-14T21:28:10.879Z,11.35
2022-10-14T21:31:18.908Z,11.33
2022-10-14T21:34:24.742Z,12.98
2022-10-14T21:37:27.955Z,14.10
2022-10-14T21:40:31.067Z,12.25
2022-10-14T21:43:37.609Z,11.43
2022-10-14T21:46:42.626Z,11.43
2022-10-14T21:49:46.932Z,14.10
2022-10-14T21:52:49.894Z,12.32
2022-10-14T21:55:53.572Z,10.60
2022-10-14T21:58:56.927Z,9.80
2022-10-14T22:02:01.859Z,9.67
2022-10-14T22:05:05.445Z,11.88
2022-10-14T22:08:08.862Z,11.40
2022-10-14T22:11:18.132Z,9.75
2022-10-14T22:14:21.846Z,11.75
2022-10-14T22:17:26.668Z,12.40
2022-10-14T22:20:29.961Z,9.50
2022-10-14T22:23:33.583Z,9.48
2022-10-14T22:26:37.682Z,12.07
2022-10-14T22:29:40.999Z,10.95
2022-10-14T22:32:45.669Z,12.00
2022-10-14T22:35:48.715Z,11.45
2022-10-14T22:38:53.936Z,10.07
2022-10-14T22:41:56.886Z,10.07
2022-10-14T22:45:00.187Z,12.23
2022-10-14T22:48:04.959Z,11.97
2022-10-14T22:51:12.228Z,9.73
2022-10-14T22:54:15.449Z,10.13
2022-10-14T22:57:18.857Z,10.43
2022-10-14T23:00:22.149Z,10.15
2022-10-14T23:03:27.297Z,11.70
2022-10-14T23:06:31.240Z,12.45
2022-10-14T23:12:42.675Z,10.00
2022-10-14T23:15:56.778Z,9.95
2022-10-14T23:19:01.253Z,10.27
2022-10-14T23:22:04.648Z,10.45
2022-10-14T23:25:08.811Z,11.27
2022-10-14T23:28:12.358Z,11.25
2022-10-14T23:31:17.975Z,11.10
2022-10-14T23:34:22.989Z,10.70
2022-10-14T23:37:26.073Z,11.70
2022-10-14T23:40:29.353Z,11.10
2022-10-14T23:43:32.712Z,9.65
2022-10-14T23:46:35.929Z,9.15
2022-10-14T23:49:40.265Z,9.47
2022-10-14T23:52:43.689Z,8.98
2022-10-14T23:55:46.753Z,9.65
2022-10-14T23:58:50.278Z,9.65
